Time;durP1;ratioP1;P1;durP2;ratioP2;P2;SDS_P1;SDS_P2;PMS_P1;PMS_P2;Temp;Humidity;BMP_temperature;BMP_pressure;BME280_temperature;BME280_humidity;BME280_pressure;Samples;Min_cycle;Max_cycle;Signal;HPM_P1;HPM_P2
2021/12/15 00:00:31;;;;;;;53.58;26.33;;;;;;;0.07;80.38;102143.88;1631764;86;25760;-60
2021/12/15 00:03:00;;;;;;;52.35;25.05;;;;;;;0.07;80.21;102146.52;1643928;85;26091;-60
2021/12/15 00:05:29;;;;;;;57.70;26.80;;;;;;;0.01;80.34;102143.56;1660698;85;25831;-60
2021/12/15 00:08:02;;;;;;;52.25;26.25;;;;;;;-0.01;80.25;102146.25;1643626;86;25861;-60
2021/12/15 00:10:30;;;;;;;57.03;25.37;;;;;;;0.03;80.51;102143.55;1639836;86;26501;-59
2021/12/15 00:12:58;;;;;;;60.08;27.58;;;;;;;0.05;80.54;102139.95;1642907;86;25868;-59
2021/12/15 00:15:28;;;;;;;52.08;25.65;;;;;;;0.12;80.42;102138.05;1633158;86;28171;-60
2021/12/15 00:17:57;;;;;;;57.23;26.35;;;;;;;0.12;80.22;102129.64;1653033;84;26084;-60
2021/12/15 00:20:27;;;;;;;56.37;27.35;;;;;;;0.15;80.31;102131.34;1665285;84;26569;-59
2021/12/15 00:22:54;;;;;;;56.08;27.77;;;;;;;0.16;80.09;102134.41;1664578;84;25777;-59
2021/12/15 00:25:26;;;;;;;55.23;25.60;;;;;;;0.19;80.16;102142.30;1667252;84;25669;-59
2021/12/15 00:27:54;;;;;;;61.25;28.55;;;;;;;0.20;80.19;102137.42;1662751;83;27574;-60
2021/12/15 00:30:22;;;;;;;52.23;26.93;;;;;;;0.27;80.26;102138.16;1667391;84;26397;-59
2021/12/15 00:32:50;;;;;;;55.73;25.40;;;;;;;0.30;80.03;102138.06;1658880;85;25816;-59
2021/12/15 00:35:18;;;;;;;55.33;24.52;;;;;;;0.36;79.94;102141.02;1657516;85;25972;-59
2021/12/15 00:37:45;;;;;;;55.30;25.95;;;;;;;0.33;79.52;102134.03;1633849;86;25818;-60
2021/12/15 00:40:16;;;;;;;53.60;24.18;;;;;;;0.33;79.50;102134.46;1637735;86;27510;-61
2021/12/15 00:42:43;;;;;;;52.93;26.17;;;;;;;0.34;79.74;102132.23;1637504;86;25872;-61
2021/12/15 00:45:12;;;;;;;55.70;23.35;;;;;;;0.34;79.42;102134.88;1636311;85;25778;-61
2021/12/15 00:47:39;;;;;;;46.77;23.42;;;;;;;0.30;79.29;102130.12;1648252;85;25812;-61
2021/12/15 00:50:12;;;;;;;57.50;24.87;;;;;;;0.29;79.37;102134.56;1635892;86;26644;-61
2021/12/15 00:52:43;;;;;;;52.43;22.75;;;;;;;0.36;79.49;102133.94;1640710;86;28274;-59
2021/12/15 00:55:17;;;;;;;49.53;23.77;;;;;;;0.33;79.18;102131.38;1662336;85;25848;-60
2021/12/15 00:57:45;;;;;;;54.25;25.40;;;;;;;0.37;79.27;102135.67;1661921;84;25792;-60
2021/12/15 01:00:20;;;;;;;52.88;23.35;;;;;;;0.38;79.21;102132.13;1659581;85;25981;-60
2021/12/15 01:02:50;;;;;;;55.50;24.32;;;;;;;0.43;79.39;102138.20;1661782;85;26365;-60
2021/12/15 01:05:23;;;;;;;53.52;24.80;;;;;;;0.49;79.26;102144.23;1668944;83;27541;-60
2021/12/15 01:07:53;;;;;;;52.95;23.98;;;;;;;0.49;79.13;102141.59;1669705;84;25989;-60
2021/12/15 01:10:30;;;;;;;55.88;25.52;;;;;;;0.54;79.07;102145.02;1661350;84;25787;-60
2021/12/15 01:21:18;;;;;;;52.55;26.12;;;;;;;0.53;78.79;102148.57;1576261;89;25748;-60
2021/12/15 01:23:46;;;;;;;54.03;25.30;;;;;;;0.54;78.84;102149.84;1611561;86;25881;-60
2021/12/15 01:26:19;;;;;;;51.90;26.12;;;;;;;0.52;78.87;102143.71;1651650;85;25824;-60
2021/12/15 01:28:48;;;;;;;;;;;;;;;0.54;78.89;102147.66;1667991;85;25852;-60
2021/12/15 01:31:15;;;;;;;54.85;25.52;;;;;;;0.60;78.92;102148.83;1650717;86;27459;-60
2021/12/15 01:33:42;;;;;;;53.75;26.00;;;;;;;0.58;78.69;102146.20;1661529;85;25797;-60
2021/12/15 01:36:12;;;;;;;60.43;24.27;;;;;;;0.57;78.55;102144.48;1635034;86;25801;-60
2021/12/15 01:38:43;;;;;;;48.92;24.00;;;;;;;0.59;78.58;102145.30;1643725;85;25755;-60
2021/12/15 01:41:20;;;;;;;51.60;24.92;;;;;;;0.61;78.73;102150.58;1649765;85;25741;-60
2021/12/15 01:46:51;;;;;;;49.83;24.45;;;;;;;0.67;78.82;102150.88;1615521;86;28368;-60
2021/12/15 01:49:16;;;;;;;48.78;23.20;;;;;;;0.72;78.61;102148.50;1643880;85;26639;-60
2021/12/15 01:51:43;;;;;;;57.15;25.40;;;;;;;0.67;78.30;102149.55;1657509;85;26507;-60
2021/12/15 01:54:12;;;;;;;51.98;25.23;;;;;;;0.69;78.44;102154.33;1643041;86;25889;-60
2021/12/15 01:56:41;;;;;;;51.23;24.12;;;;;;;0.71;78.43;102144.58;1654861;86;27483;-61
2021/12/15 01:59:11;;;;;;;46.98;22.42;;;;;;;0.70;78.18;102129.59;1659023;84;25690;-60
2021/12/15 02:01:39;;;;;;;49.60;22.70;;;;;;;0.67;78.20;102121.75;1656522;85;25837;-60
2021/12/15 02:04:07;;;;;;;46.18;23.02;;;;;;;0.62;78.16;102133.78;1660836;84;26191;-60
2021/12/15 02:06:38;;;;;;;47.23;21.82;;;;;;;0.58;78.24;102135.61;1656641;86;25798;-61
2021/12/15 02:09:05;;;;;;;44.90;21.93;;;;;;;0.58;78.39;102136.93;1670305;84;27495;-60
2021/12/15 02:11:32;;;;;;;48.87;22.40;;;;;;;0.56;78.36;102132.59;1680523;84;25823;-61
2021/12/15 02:13:59;;;;;;;49.45;24.00;;;;;;;0.53;78.47;102136.66;1655088;86;25745;-61
2021/12/15 02:16:28;;;;;;;46.02;22.40;;;;;;;0.45;78.53;102126.23;1656677;86;25841;-61
2021/12/15 02:18:58;;;;;;;44.85;22.27;;;;;;;0.42;78.60;102133.81;1651410;86;25817;-61
2021/12/15 02:21:28;;;;;;;46.15;21.77;;;;;;;0.41;78.90;102136.03;1661185;84;28194;-61
2021/12/15 02:23:58;;;;;;;44.83;21.73;;;;;;;0.38;78.90;102143.19;1654263;85;26803;-61
2021/12/15 02:26:39;;;;;;;43.68;20.68;;;;;;;0.33;79.09;102138.00;1650839;85;26052;-61
2021/12/15 02:29:07;;;;;;;42.60;21.35;;;;;;;0.36;79.11;102138.37;1641211;85;25988;-61
2021/12/15 02:39:33;;;;;;;43.23;21.52;;;;;;;0.52;78.94;102154.77;1636718;86;25760;-61
2021/12/15 02:42:02;;;;;;;44.98;22.15;;;;;;;0.52;78.94;102154.77;1637480;87;25823;-61
2021/12/15 02:44:31;;;;;;;45.90;22.93;;;;;;;0.54;78.95;102149.84;1644343;83;25844;-61
2021/12/15 02:46:57;;;;;;;44.15;22.42;;;;;;;0.53;78.75;102151.22;1657043;86;29716;-61
2021/12/15 02:49:28;;;;;;;42.10;21.52;;;;;;;0.54;79.05;102152.97;1627235;86;25821;-61
2021/12/15 02:51:59;;;;;;;51.23;23.52;;;;;;;0.54;79.07;102160.44;1632804;87;26042;-61
2021/12/15 02:54:29;;;;;;;50.15;22.52;;;;;;;0.52;78.96;102158.27;1635146;87;26023;-61
2021/12/15 02:57:04;;;;;;;39.67;21.52;;;;;;;0.55;78.99;102163.50;1637050;86;25774;-61
2021/12/15 02:59:33;;;;;;;46.75;22.95;;;;;;;0.61;79.00;102156.72;1636651;87;28744;-61
2021/12/15 03:02:08;;;;;;;41.00;20.77;;;;;;;0.64;78.82;102146.50;1633869;86;25843;-61
2021/12/15 03:07:10;;;;;;;46.37;21.90;;;;;;;0.66;78.64;102156.61;1660164;85;25858;-61
2021/12/15 03:15:29;;;;;;;42.45;20.65;;;;;;;0.57;78.77;102148.45;1657991;85;25887;-60
2021/12/15 03:18:09;;;;;;;41.45;20.15;;;;;;;0.51;78.75;102159.64;1654924;85;25852;-60
2021/12/15 03:20:49;;;;;;;42.67;21.50;;;;;;;0.47;78.93;102154.88;1643310;84;26491;-60
2021/12/15 03:23:44;;;;;;;42.58;20.97;;;;;;;0.39;79.05;102151.55;1639655;85;25761;-60
2021/12/15 03:26:11;;;;;;;45.65;20.45;;;;;;;0.38;79.24;102149.34;1653481;85;27515;-60
2021/12/15 03:34:38;;;;;;;34.25;18.95;;;;;;;0.45;79.25;102146.95;1650933;86;25812;-60
2021/12/15 03:39:27;;;;;;;31.50;16.23;;;;;;;0.54;79.13;102145.02;1649987;85;27568;-61
2021/12/15 03:42:00;;;;;;;35.73;16.57;;;;;;;0.55;78.95;102146.73;1659141;86;26198;-61
2021/12/15 03:44:31;;;;;;;27.98;14.85;;;;;;;0.58;79.00;102139.58;1657777;85;25897;-61
2021/12/15 03:47:02;;;;;;;30.17;15.75;;;;;;;0.64;78.95;102130.61;1658095;84;25853;-61
2021/12/15 03:49:29;;;;;;;26.42;15.38;;;;;;;0.70;78.89;102132.24;1635470;86;25919;-61
2021/12/15 03:51:56;;;;;;;29.27;14.38;;;;;;;0.69;78.68;102134.03;1660770;83;28184;-61
2021/12/15 03:54:23;;;;;;;26.57;14.20;;;;;;;0.73;78.54;102138.33;1659113;84;26373;-59
2021/12/15 03:56:50;;;;;;;30.05;14.98;;;;;;;0.76;78.37;102144.03;1664603;84;25891;-59
2021/12/15 03:59:19;;;;;;;26.05;14.07;;;;;;;0.77;78.24;102134.70;1675114;83;26630;-59
2021/12/15 04:01:47;;;;;;;28.25;14.87;;;;;;;0.80;78.25;102136.88;1687852;84;25869;-60
2021/12/15 04:04:13;;;;;;;24.32;13.75;;;;;;;0.73;77.72;102137.47;1650885;84;27526;-61
2021/12/15 04:06:41;;;;;;;23.02;13.30;;;;;;;0.65;77.61;102139.45;1660623;86;25877;-61
2021/12/15 04:09:12;;;;;;;25.23;12.47;;;;;;;0.55;77.69;102144.97;1636345;85;25800;-60
2021/12/15 04:11:41;;;;;;;20.00;11.03;;;;;;;0.48;77.77;102148.69;1643633;85;44800;-61
2021/12/15 04:14:19;;;;;;;27.07;15.85;;;;;;;0.49;77.87;102148.22;1652768;85;25939;-61
2021/12/15 04:16:57;;;;;;;;;;;;;;;0.40;77.90;102151.50;1660934;84;27508;-60
2021/12/15 04:19:19;;;;;;;19.92;10.43;;;;;;;0.35;77.96;102145.45;1668166;84;25876;-61
2021/12/15 04:21:47;;;;;;;19.00;10.23;;;;;;;0.33;78.16;102152.56;1663612;85;25662;-60
2021/12/15 04:24:18;;;;;;;16.82;9.73;;;;;;;0.29;78.08;102151.77;1650492;85;26458;-60
2021/12/15 04:26:47;;;;;;;16.60;9.15;;;;;;;0.29;78.08;102162.78;1658205;85;25758;-61
2021/12/15 04:29:18;;;;;;;15.55;9.38;;;;;;;0.35;78.02;102163.10;1660297;84;27479;-61
2021/12/15 04:32:05;;;;;;;14.80;8.70;;;;;;;0.39;78.07;102170.94;1643077;85;25844;-61
2021/12/15 04:34:32;;;;;;;15.43;9.60;;;;;;;0.43;77.86;102170.41;1640902;86;25775;-60
2021/12/15 04:37:00;;;;;;;14.68;8.70;;;;;;;0.46;77.69;102167.70;1648435;86;25918;-60
2021/12/15 04:39:28;;;;;;;20.68;10.65;;;;;;;0.49;77.50;102166.31;1655436;85;25798;-60
2021/12/15 04:41:59;;;;;;;18.45;9.78;;;;;;;0.49;77.46;102170.72;1657184;85;27463;-60
2021/12/15 04:44:30;;;;;;;20.97;10.75;;;;;;;0.51;77.40;102172.89;1660166;84;25775;-60
2021/12/15 04:47:04;;;;;;;17.35;9.68;;;;;;;0.54;77.40;102160.91;1658732;85;25869;-60
2021/12/15 04:49:33;;;;;;;;;;;;;;;0.53;77.00;102169.75;1659783;85;27445;-60
2021/12/15 04:52:01;;;;;;;16.30;9.65;;;;;;;0.50;77.17;102172.47;1654507;86;25844;-60
2021/12/15 04:54:31;;;;;;;16.27;10.08;;;;;;;0.47;76.99;102172.09;1670874;84;27441;-59
2021/12/15 04:57:01;;;;;;;21.42;10.58;;;;;;;0.45;77.09;102178.72;1650317;85;25918;-59
2021/12/15 04:59:28;;;;;;;19.60;10.48;;;;;;;0.43;77.12;102181.00;1625877;87;25753;-60
2021/12/15 05:01:58;;;;;;;22.10;11.38;;;;;;;0.40;77.17;102183.27;1653198;85;25860;-60
2021/12/15 05:04:26;;;;;;;22.95;11.85;;;;;;;0.46;77.46;102193.71;1657044;85;25804;-60
2021/12/15 05:06:53;;;;;;;23.35;12.13;;;;;;;0.43;77.29;102198.20;1671624;84;27474;-60
2021/12/15 05:09:22;;;;;;;24.05;13.53;;;;;;;0.38;77.30;102195.66;1654348;86;26333;-60
2021/12/15 05:11:50;;;;;;;21.95;11.20;;;;;;;0.40;77.52;102193.86;1647031;86;26040;-60
2021/12/15 05:14:19;;;;;;;24.45;14.78;;;;;;;0.42;77.42;102196.03;1647878;86;26407;-59
2021/12/15 05:16:46;;;;;;;19.45;11.00;;;;;;;0.40;77.24;102203.59;1675869;84;25843;-60
2021/12/15 05:19:14;;;;;;;18.50;10.35;;;;;;;0.46;77.18;102204.77;1658501;85;27565;-59
2021/12/15 05:21:42;;;;;;;20.75;9.95;;;;;;;0.45;77.12;102205.67;1605874;87;25816;-60
2021/12/15 05:24:30;;;;;;;17.80;9.58;;;;;;;0.47;77.06;102201.22;1645724;84;25813;-60
2021/12/15 05:26:42;;;;;;;;;;;;;;;0.50;76.54;102197.62;1642651;85;26601;-59
2021/12/15 05:29:12;;;;;;;18.02;9.63;;;;;;;0.51;76.30;102207.31;1647544;84;25852;-59
2021/12/15 05:31:39;;;;;;;12.18;7.25;;;;;;;0.51;75.89;102208.63;1614888;87;27507;-60
2021/12/15 05:34:06;;;;;;;13.03;7.65;;;;;;;0.52;75.08;102199.78;1647647;85;25836;-61
2021/12/15 05:36:33;;;;;;;12.55;7.37;;;;;;;0.47;75.23;102203.86;1639255;86;25712;-60
2021/12/15 05:39:00;;;;;;;12.60;7.60;;;;;;;0.45;75.00;102199.91;1665960;84;26448;-60
2021/12/15 05:41:27;;;;;;;12.33;6.75;;;;;;;0.45;75.22;102193.28;1666342;84;25859;-60
2021/12/15 05:43:54;;;;;;;13.25;7.62;;;;;;;0.50;75.39;102210.39;1665919;85;27531;-60
2021/12/15 05:46:22;;;;;;;11.80;7.00;;;;;;;0.51;75.04;102211.28;1612723;86;25843;-60
2021/12/15 05:48:54;;;;;;;11.33;6.67;;;;;;;0.52;75.14;102211.23;1623013;86;25800;-60
2021/12/15 05:51:28;;;;;;;12.60;7.37;;;;;;;0.51;75.03;102209.95;1602889;86;25998;-60
2021/12/15 05:53:56;;;;;;;10.98;6.72;;;;;;;0.54;74.81;102209.43;1627443;83;25930;-60
2021/12/15 05:56:27;;;;;;;12.65;7.50;;;;;;;0.50;74.47;102213.04;1654599;84;27488;-60
2021/12/15 05:59:02;;;;;;;11.78;7.00;;;;;;;0.46;74.52;102210.92;1655160;85;26131;-60
2021/12/15 06:01:29;;;;;;;14.18;7.05;;;;;;;0.46;74.47;102221.98;1646094;85;25804;-60
2021/12/15 06:04:00;;;;;;;17.07;8.28;;;;;;;0.46;74.60;102220.19;1644759;85;25816;-60
2021/12/15 06:06:28;;;;;;;12.55;7.47;;;;;;;0.50;74.43;102227.60;1649823;85;27039;-60
2021/12/15 06:08:57;;;;;;;17.60;8.83;;;;;;;0.50;74.35;102223.63;1664794;83;27498;-60
2021/12/15 06:11:25;;;;;;;14.83;7.60;;;;;;;0.47;74.24;102218.42;1671286;84;25805;-60
2021/12/15 06:13:54;;;;;;;16.02;8.08;;;;;;;0.46;74.48;102234.75;1679562;83;25829;-60
2021/12/15 06:16:22;;;;;;;14.87;9.03;;;;;;;0.47;74.28;102246.23;1668855;84;25815;-60
2021/12/15 06:18:51;;;;;;;13.13;8.33;;;;;;;0.40;74.28;102238.88;1645671;85;25762;-60
2021/12/15 06:21:20;;;;;;;16.25;9.13;;;;;;;0.39;74.46;102248.18;1648694;84;27478;-60
2021/12/15 06:23:48;;;;;;;18.98;9.53;;;;;;;0.42;74.42;102248.09;1658179;85;25744;-60
2021/12/15 06:26:17;;;;;;;21.00;9.43;;;;;;;0.38;74.48;102253.05;1644964;85;26100;-60
2021/12/15 06:28:47;;;;;;;18.50;9.10;;;;;;;0.40;74.66;102253.90;1677017;84;26477;-60
2021/12/15 06:31:17;;;;;;;15.78;9.45;;;;;;;0.41;74.70;102256.50;1663874;84;25899;-60
2021/12/15 06:33:46;;;;;;;15.03;9.45;;;;;;;0.38;74.38;102265.83;1612920;87;27492;-60
2021/12/15 06:36:20;;;;;;;17.48;9.55;;;;;;;0.37;74.47;102268.52;1612826;87;26115;-60
2021/12/15 06:38:52;;;;;;;18.32;9.75;;;;;;;0.38;74.45;102256.55;1655174;85;26508;-60
2021/12/15 06:41:20;;;;;;;21.00;9.25;;;;;;;0.37;74.45;102256.60;1657085;84;25809;-60
2021/12/15 06:43:54;;;;;;;17.02;9.53;;;;;;;0.37;74.40;102256.13;1644049;85;25824;-60
2021/12/15 06:58:10;;;;;;;15.40;8.50;;;;;;;0.30;73.67;102261.15;1656362;86;25895;-60
2021/12/15 07:00:13;;;;;;;15.40;8.65;;;;;;;0.30;73.51;102269.09;1660620;86;27573;-60
2021/12/15 07:02:41;;;;;;;17.73;9.93;;;;;;;0.30;73.83;102272.62;1640517;86;25846;-59
2021/12/15 07:05:10;;;;;;;16.73;9.95;;;;;;;0.31;73.90;102273.02;1643083;84;26091;-60
2021/12/15 07:07:39;;;;;;;15.13;9.53;;;;;;;0.35;73.56;102272.97;1635663;86;25856;-59
2021/12/15 07:10:10;;;;;;;19.00;10.20;;;;;;;0.37;73.97;102277.78;1642060;84;25841;-59
2021/12/15 07:12:40;;;;;;;16.60;9.63;;;;;;;0.42;73.96;102284.72;1643575;85;28188;-59
2021/12/15 07:15:11;;;;;;;21.17;10.82;;;;;;;0.41;73.78;102290.92;1637468;84;25903;-59
2021/12/15 07:17:44;;;;;;;18.82;10.18;;;;;;;0.43;73.87;102298.81;1642986;84;25818;-59
2021/12/15 07:23:15;;;;;;;20.65;10.08;;;;;;;0.37;73.43;102309.55;1632374;87;25985;-60
2021/12/15 07:25:46;;;;;;;19.00;10.37;;;;;;;0.40;73.65;102310.82;1631558;87;27476;-60
2021/12/15 07:28:16;;;;;;;20.08;11.30;;;;;;;0.47;73.34;102313.75;1635017;86;25837;-60
2021/12/15 07:30:44;;;;;;;18.57;9.65;;;;;;;0.43;73.45;102310.73;1659595;84;25955;-59
2021/12/15 07:33:12;;;;;;;23.95;11.10;;;;;;;0.38;73.29;102317.91;1636592;86;25864;-60
2021/12/15 07:35:40;;;;;;;23.32;10.55;;;;;;;0.40;73.16;102315.65;1637591;87;25923;-60
2021/12/15 07:38:09;;;;;;;18.87;10.53;;;;;;;0.38;73.11;102316.59;1636782;87;27531;-60
2021/12/15 07:40:40;;;;;;;21.40;10.32;;;;;;;0.34;72.98;102314.47;1651830;84;25861;-60
2021/12/15 07:43:23;;;;;;;21.30;9.80;;;;;;;0.29;72.76;102320.28;1641299;86;25846;-60
2021/12/15 07:45:50;;;;;;;22.20;9.93;;;;;;;0.25;72.80;102323.92;1649664;85;26007;-60
2021/12/15 07:48:17;;;;;;;;;;;;;;;0.24;72.93;102323.03;1676537;84;25960;-59
2021/12/15 07:50:47;;;;;;;21.20;10.32;;;;;;;0.24;72.71;102317.73;1667089;84;27439;-60
2021/12/15 07:53:18;;;;;;;22.32;10.78;;;;;;;0.25;72.37;102315.98;1655707;85;25604;-60
2021/12/15 07:55:47;;;;;;;18.52;11.08;;;;;;;0.19;72.38;102313.44;1639586;85;25943;-59
2021/12/15 07:58:18;;;;;;;22.10;10.65;;;;;;;0.21;72.60;102320.47;1650752;85;25873;-59
2021/12/15 08:00:47;;;;;;;18.95;10.25;;;;;;;0.18;72.39;102315.69;1653697;85;25965;-59
2021/12/15 08:03:16;;;;;;;17.92;9.93;;;;;;;0.23;72.49;102315.13;1613628;85;28180;-59
2021/12/15 08:05:46;;;;;;;21.77;10.50;;;;;;;0.28;72.49;102316.78;1653377;84;25833;-59
2021/12/15 08:08:13;;;;;;;23.18;11.43;;;;;;;0.27;72.42;102312.86;1664266;84;26015;-59
2021/12/15 08:10:42;;;;;;;20.32;10.82;;;;;;;0.29;72.43;102320.28;1650991;85;25826;-59
2021/12/15 08:13:11;;;;;;;23.12;10.23;;;;;;;0.29;72.37;102316.31;1646724;86;25823;-60
2021/12/15 08:15:38;;;;;;;22.07;12.05;;;;;;;0.31;72.40;102328.61;1672640;84;27455;-60
2021/12/15 08:18:06;;;;;;;28.85;12.25;;;;;;;0.24;72.32;102320.38;1657524;84;25940;-60
2021/12/15 08:20:36;;;;;;;24.82;12.75;;;;;;;0.26;72.32;102328.31;1643264;85;25786;-60
2021/12/15 08:23:06;;;;;;;24.37;12.65;;;;;;;0.22;72.41;102336.77;1647238;84;25899;-60
2021/12/15 08:25:35;;;;;;;25.30;13.18;;;;;;;0.20;72.36;102337.24;1644328;84;25773;-60
2021/12/15 08:28:04;;;;;;;34.92;13.32;;;;;;;0.21;72.71;102336.34;1654138;84;27496;-60
2021/12/15 08:30:32;;;;;;;28.87;12.98;;;;;;;0.21;72.80;102333.70;1640110;84;25884;-60
2021/12/15 08:33:04;;;;;;;32.35;14.07;;;;;;;0.19;72.80;102337.25;1644563;85;25833;-60
2021/12/15 08:35:36;;;;;;;36.48;16.10;;;;;;;0.16;72.96;102346.13;1626827;86;26015;-60
2021/12/15 08:38:06;;;;;;;32.35;15.38;;;;;;;0.09;72.91;102345.37;1653739;85;25776;-60
2021/12/15 08:40:34;;;;;;;35.65;15.63;;;;;;;0.08;73.18;102344.09;1654441;85;26906;-60
2021/12/15 08:43:02;;;;;;;33.83;15.90;;;;;;;0.05;73.16;102345.45;1655043;84;25953;-60
2021/12/15 08:45:32;;;;;;;43.60;16.07;;;;;;;0.07;73.36;102348.95;1642122;85;25848;-60
2021/12/15 08:47:59;;;;;;;49.33;17.27;;;;;;;0.05;73.36;102354.29;1659074;83;25849;-60
2021/12/15 08:50:31;;;;;;;36.65;17.23;;;;;;;-0.08;73.49;102355.41;1652556;83;25765;-60
2021/12/15 08:52:58;;;;;;;42.83;17.30;;;;;;;-0.10;73.64;102351.47;1647099;85;27476;-60
2021/12/15 08:55:26;;;;;;;36.85;15.48;;;;;;;-0.02;73.85;102347.38;1656982;85;25883;-60
2021/12/15 08:57:56;;;;;;;38.98;15.95;;;;;;;0.03;73.92;102336.23;1663458;84;25701;-60
2021/12/15 09:00:27;;;;;;;40.75;14.45;;;;;;;0.11;73.75;102348.02;1649754;85;26553;-60
2021/12/15 09:02:56;;;;;;;36.95;15.23;;;;;;;0.09;73.52;102333.46;1653932;84;25764;-60
2021/12/15 09:05:26;;;;;;;38.17;16.00;;;;;;;0.03;73.30;102337.56;1668143;84;27388;-60
2021/12/15 09:07:58;;;;;;;38.78;16.10;;;;;;;-0.04;73.34;102335.94;1649640;86;25871;-60
2021/12/15 09:10:29;;;;;;;35.73;15.05;;;;;;;-0.08;73.47;102349.68;1646835;85;25823;-60
2021/12/15 09:12:58;;;;;;;32.73;15.58;;;;;;;-0.09;73.58;102347.93;1654791;84;25790;-59
2021/12/15 09:15:25;;;;;;;40.00;15.38;;;;;;;-0.08;73.48;102351.44;1685162;84;25816;-60
2021/12/15 09:17:54;;;;;;;35.13;15.43;;;;;;;-0.11;73.21;102340.93;1654074;84;28162;-60
2021/12/15 09:20:26;;;;;;;34.20;15.32;;;;;;;-0.17;73.17;102344.09;1607295;86;25893;-60
2021/12/15 09:22:56;;;;;;;32.50;15.60;;;;;;;-0.12;73.33;102345.80;1644810;85;25836;-60
2021/12/15 09:25:25;;;;;;;35.20;13.93;;;;;;;-0.12;73.33;102347.98;1659712;84;26423;-60
2021/12/15 09:27:51;;;;;;;33.10;14.73;;;;;;;-0.17;73.12;102341.91;1650834;84;25990;-60
2021/12/15 09:30:21;;;;;;;29.30;13.83;;;;;;;-0.10;73.30;102336.92;1654959;84;27526;-60
2021/12/15 09:32:50;;;;;;;24.35;13.18;;;;;;;-0.01;73.10;102341.19;1652639;84;25849;-60
2021/12/15 09:35:19;;;;;;;25.17;13.00;;;;;;;-0.03;72.71;102335.90;1649362;85;25785;-60
2021/12/15 09:37:47;;;;;;;22.85;11.60;;;;;;;0.04;72.50;102332.70;1632555;85;25794;-60
2021/12/15 09:40:17;;;;;;;26.20;11.57;;;;;;;0.06;71.92;102334.87;1635947;86;25752;-59
2021/12/15 09:42:45;;;;;;;25.17;12.37;;;;;;;0.01;71.35;102332.74;1636539;84;26997;-60
2021/12/15 09:56:26;;;;;;;21.82;11.65;;;;;;;0.14;70.89;102332.94;1641957;85;25779;-60
2021/12/15 10:04:27;;;;;;;28.07;13.40;;;;;;;0.04;70.08;102332.70;1637639;84;25811;-59
2021/12/15 10:07:17;;;;;;;21.85;10.43;;;;;;;0.10;70.56;102329.92;1679698;84;26044;-59
2021/12/15 10:17:53;;;;;;;27.35;12.78;;;;;;;0.21;69.27;102323.55;1633402;87;25897;-60
2021/12/15 10:20:22;;;;;;;22.55;10.10;;;;;;;0.21;69.55;102315.17;1629797;86;25802;-60
2021/12/15 10:22:57;;;;;;;20.57;10.48;;;;;;;0.32;69.35;102321.56;1649831;85;27504;-60
2021/12/15 10:25:47;;;;;;;21.12;11.55;;;;;;;0.37;68.48;102332.05;1639655;86;25856;-60
2021/12/15 10:28:24;;;;;;;21.90;9.48;;;;;;;0.35;68.27;102321.94;1639419;85;25568;-60
2021/12/15 10:30:56;;;;;;;17.77;9.18;;;;;;;0.18;67.96;102320.52;1639696;85;25972;-60
2021/12/15 10:33:37;;;;;;;18.45;10.45;;;;;;;0.08;67.96;102320.27;1644013;85;25841;-60
2021/12/15 10:36:11;;;;;;;20.95;10.72;;;;;;;0.05;68.35;102321.22;1639479;85;27579;-60
2021/12/15 10:38:45;;;;;;;17.62;10.43;;;;;;;0.13;68.53;102312.67;1641887;85;25910;-60
2021/12/15 10:41:23;;;;;;;18.35;10.03;;;;;;;0.14;67.85;102314.41;1644744;86;28823;-60
2021/12/15 10:44:11;;;;;;;19.80;9.53;;;;;;;0.14;67.85;102314.41;1648034;85;25916;-59
2021/12/15 10:46:51;;;;;;;22.58;9.48;;;;;;;0.21;68.37;102327.08;1667697;85;25736;-60
2021/12/15 10:49:20;;;;;;;18.90;10.25;;;;;;;0.21;67.62;102317.82;1636991;86;27532;-60
2021/12/15 10:52:11;;;;;;;21.57;9.73;;;;;;;0.22;68.00;102315.59;1671316;84;25993;-60
2021/12/15 10:54:56;;;;;;;20.82;11.15;;;;;;;0.20;67.31;102313.42;1674540;84;25851;-60
2021/12/15 10:57:34;;;;;;;21.97;10.82;;;;;;;-0.02;67.35;102313.84;1670767;84;25747;-60
2021/12/15 11:00:05;;;;;;;21.55;10.08;;;;;;;-0.05;68.21;102317.00;1672510;84;25769;-60
2021/12/15 11:02:35;;;;;;;19.40;9.38;;;;;;;-0.11;68.36;102317.98;1671091;84;27519;-60
2021/12/15 11:05:10;;;;;;;20.77;10.45;;;;;;;-0.13;68.48;102321.09;1680794;84;25780;-60
2021/12/15 11:07:54;;;;;;;20.80;10.32;;;;;;;-0.07;68.68;102318.36;1685380;84;25888;-59
2021/12/15 11:10:31;;;;;;;25.43;11.70;;;;;;;-0.07;68.47;102325.41;1643988;84;26708;-59
2021/12/15 11:13:12;;;;;;;19.80;10.28;;;;;;;-0.17;68.22;102322.07;1653228;84;25902;-59
2021/12/15 11:15:44;;;;;;;26.95;9.93;;;;;;;-0.15;68.83;102311.02;1644632;86;28734;-59
2021/12/15 11:18:24;;;;;;;18.32;9.53;;;;;;;-0.10;68.81;102309.15;1656353;84;25939;-59
2021/12/15 11:21:02;;;;;;;21.77;10.65;;;;;;;-0.14;68.22;102303.94;1642459;85;25944;-59
2021/12/15 11:23:35;;;;;;;20.43;10.38;;;;;;;-0.14;68.61;102318.49;1644673;86;25800;-59
2021/12/15 11:26:06;;;;;;;17.87;9.83;;;;;;;-0.08;68.84;102313.08;1652346;84;25928;-59
2021/12/15 11:28:49;;;;;;;22.67;11.35;;;;;;;-0.06;68.65;102304.23;1647190;86;27510;-59
2021/12/15 11:31:26;;;;;;;24.60;10.80;;;;;;;-0.10;68.61;102306.97;1640659;86;25876;-60
2021/12/15 11:34:01;;;;;;;26.15;13.15;;;;;;;-0.17;68.64;102310.17;1651787;85;25978;-59
2021/12/15 11:36:37;;;;;;;26.82;12.90;;;;;;;-0.31;68.99;102313.07;1648672;85;25855;-59
2021/12/15 11:39:09;;;;;;;27.70;13.15;;;;;;;-0.39;69.33;102319.80;1625691;86;25780;-59
2021/12/15 11:41:41;;;;;;;36.33;12.68;;;;;;;-0.45;69.65;102305.84;1648311;84;27434;-60
2021/12/15 11:44:13;;;;;;;31.80;12.55;;;;;;;-0.50;69.73;102317.83;1650386;85;25859;-59
2021/12/15 11:46:48;;;;;;;26.15;13.22;;;;;;;-0.50;70.07;102312.54;1660814;84;25777;-59
2021/12/15 11:49:22;;;;;;;23.07;12.07;;;;;;;-0.50;70.13;102312.08;1680803;83;26784;-60
2021/12/15 11:52:04;;;;;;;25.37;11.03;;;;;;;-0.50;70.25;102316.03;1691965;84;26194;-60
2021/12/15 11:54:39;;;;;;;34.13;12.70;;;;;;;-0.50;70.32;102313.86;1678419;84;28755;-59
2021/12/15 11:57:23;;;;;;;21.40;11.00;;;;;;;-0.56;70.52;102309.98;1673514;84;25798;-59
2021/12/15 11:59:55;;;;;;;26.12;12.60;;;;;;;-0.60;70.78;102312.27;1667115;84;25840;-58
2021/12/15 12:02:35;;;;;;;23.47;11.08;;;;;;;-0.55;70.99;102314.37;1663826;85;26592;-59
2021/12/15 12:05:13;;;;;;;25.43;11.75;;;;;;;-0.51;70.97;102310.79;1670182;83;25753;-58
2021/12/15 12:07:58;;;;;;;28.65;13.53;;;;;;;-0.45;71.01;102311.99;1623620;85;27497;-59
2021/12/15 12:10:44;;;;;;;26.45;13.22;;;;;;;-0.54;71.07;102316.98;1645765;84;25864;-60
2021/12/15 12:13:27;;;;;;;23.47;11.33;;;;;;;-0.50;71.14;102311.22;1619909;85;26009;-60
2021/12/15 12:16:01;;;;;;;26.82;11.97;;;;;;;-0.48;71.18;102319.97;1648106;85;25740;-60
2021/12/15 12:18:30;;;;;;;24.70;11.35;;;;;;;-0.49;71.08;102323.51;1650944;85;25944;-58
2021/12/15 12:21:05;;;;;;;23.15;9.95;;;;;;;-0.52;71.03;102322.26;1647347;85;27767;-59
2021/12/15 12:23:44;;;;;;;20.48;10.55;;;;;;;-0.51;71.18;102328.83;1662128;85;25840;-59
2021/12/15 12:26:10;;;;;;;24.15;11.12;;;;;;;-0.49;71.14;102315.14;1660311;84;25776;-59
2021/12/15 12:28:41;;;;;;;23.07;11.10;;;;;;;-0.50;71.03;102323.11;1661239;85;25851;-60
2021/12/15 12:31:19;;;;;;;25.20;10.43;;;;;;;-0.54;71.29;102325.37;1654926;84;25833;-60
2021/12/15 12:33:46;;;;;;;23.12;12.33;;;;;;;-0.58;71.38;102321.05;1657200;85;28277;-60
2021/12/15 12:36:19;;;;;;;29.82;12.23;;;;;;;-0.62;71.49;102320.20;1670131;84;25771;-60
2021/12/15 12:38:52;;;;;;;;;;;;;;;-0.68;71.84;102319.88;1640705;85;25852;-59
2021/12/15 12:41:24;;;;;;;23.05;10.55;;;;;;;-0.65;72.08;102325.56;1648020;85;27994;-60
2021/12/15 12:43:59;;;;;;;24.05;11.73;;;;;;;-0.74;72.21;102329.21;1658144;84;25862;-60
2021/12/15 13:00:55;;;;;;;18.10;9.75;;;;;;;-0.39;71.85;102320.27;1652822;86;27494;-59
2021/12/15 13:03:09;;;;;;;19.55;8.88;;;;;;;-0.35;72.01;102314.90;1646846;86;26381;-59
2021/12/15 13:05:46;;;;;;;18.70;9.43;;;;;;;-0.30;71.70;102313.50;1650869;85;25875;-60